Time;durP1;ratioP1;P1;durP2;ratioP2;P2;SDS_P1;SDS_P2;PMS_P1;PMS_P2;Temp;Humidity;BMP_temperature;BMP_pressure;BME280_temperature;BME280_humidity;BME280_pressure;Samples;Min_cycle;Max_cycle;Signal;HPM_P1;HPM_P2
2022/01/13 00:00:40;;;;;;;49.75;27.75;;;;;;;;;;4996250;28;20141;-79
2022/01/13 00:03:05;;;;;;;40.03;23.10;;;;;;;;;;4996173;28;20057;-80
2022/01/13 00:05:31;;;;;;;42.20;23.08;;;;;;;;;;4998252;28;20432;-79
2022/01/13 00:07:58;;;;;;;47.47;24.58;;;;;;;;;;4997812;28;20417;-79
2022/01/13 00:10:26;;;;;;;38.78;20.77;;;;;;;;;;4997438;28;20530;-79
2022/01/13 00:13:03;;;;;;;30.77;15.13;;;;;;;;;;4995938;28;20462;-79
2022/01/13 00:18:08;;;;;;;35.20;18.08;;;;;;;;;;4997177;28;20150;-80
2022/01/13 00:20:57;;;;;;;32.67;17.48;;;;;;;;;;4996051;28;20033;-81
2022/01/13 00:26:08;;;;;;;36.38;21.25;;;;;;;;;;4996212;28;20036;-80
2022/01/13 00:28:34;;;;;;;37.50;19.08;;;;;;;;;;4994882;28;20116;-81
2022/01/13 00:31:04;;;;;;;37.45;21.85;;;;;;;;;;4995201;28;20044;-80
2022/01/13 00:33:29;;;;;;;40.58;24.13;;;;;;;;;;4995849;28;20140;-79
2022/01/13 00:35:57;;;;;;;35.78;20.98;;;;;;;;;;4995160;28;20042;-81
2022/01/13 00:38:22;;;;;;;35.85;19.60;;;;;;;;;;4995663;28;20038;-82
2022/01/13 00:40:48;;;;;;;31.83;17.80;;;;;;;;;;4995622;28;20121;-80
2022/01/13 00:43:13;;;;;;;48.53;24.75;;;;;;;;;;4997363;28;20144;-80
2022/01/13 00:45:39;;;;;;;53.78;29.00;;;;;;;;;;4996562;28;20030;-82
2022/01/13 00:48:04;;;;;;;49.03;22.88;;;;;;;;;;4996230;28;20441;-80
2022/01/13 00:50:30;;;;;;;51.72;25.50;;;;;;;;;;4997285;28;20084;-81
2022/01/13 00:52:55;;;;;;;31.65;14.80;;;;;;;;;;4996562;28;20030;-82
2022/01/13 00:55:22;;;;;;;35.13;17.80;;;;;;;;;;4995104;28;20021;-81
2022/01/13 00:57:48;;;;;;;27.88;14.38;;;;;;;;;;4995514;28;20033;-80
2022/01/13 01:00:13;;;;;;;30.33;14.55;;;;;;;;;;4996735;28;20030;-81
2022/01/13 01:02:39;;;;;;;46.80;22.80;;;;;;;;;;5028162;28;20025;-81
2022/01/13 01:05:04;;;;;;;38.15;16.50;;;;;;;;;;4995048;28;20018;-80
2022/01/13 01:07:30;;;;;;;43.78;20.38;;;;;;;;;;4995217;28;20037;-80
2022/01/13 01:09:58;;;;;;;170.45;69.43;;;;;;;;;;4995112;28;20580;-80
2022/01/13 01:12:24;;;;;;;35.00;18.00;;;;;;;;;;4994974;28;20371;-79
2022/01/13 01:14:55;;;;;;;34.10;17.05;;;;;;;;;;4977525;28;20064;-79
2022/01/13 01:17:21;;;;;;;31.27;16.98;;;;;;;;;;4992211;28;20049;-80
2022/01/13 01:19:50;;;;;;;22.95;13.77;;;;;;;;;;4994876;28;20054;-81
2022/01/13 01:27:45;;;;;;;32.50;16.02;;;;;;;;;;4995843;28;20098;-78
2022/01/13 01:30:25;;;;;;;31.55;17.20;;;;;;;;;;4994918;28;20025;-79
2022/01/13 01:32:50;;;;;;;32.08;15.88;;;;;;;;;;4995007;28;20386;-79
2022/01/13 01:35:17;;;;;;;36.45;17.73;;;;;;;;;;4997312;28;20121;-79
2022/01/13 01:37:43;;;;;;;26.05;13.10;;;;;;;;;;4994361;28;20033;-79
2022/01/13 01:40:10;;;;;;;30.88;14.65;;;;;;;;;;4994682;28;20036;-79
2022/01/13 01:42:35;;;;;;;36.40;18.63;;;;;;;;;;4995797;28;20289;-79
2022/01/13 01:45:01;;;;;;;29.63;15.55;;;;;;;;;;4996009;28;20235;-79
2022/01/13 01:47:28;;;;;;;26.42;13.40;;;;;;;;;;4996144;28;20054;-79
2022/01/13 01:49:56;;;;;;;35.00;17.58;;;;;;;;;;4994440;28;20371;-79
2022/01/13 01:52:22;;;;;;;35.10;17.27;;;;;;;;;;4994123;28;20033;-79
2022/01/13 01:54:48;;;;;;;42.42;19.17;;;;;;;;;;4994102;28;20022;-80
2022/01/13 01:57:14;;;;;;;38.80;19.85;;;;;;;;;;4996645;28;20029;-78
2022/01/13 01:59:41;;;;;;;34.72;17.50;;;;;;;;;;4993961;28;20033;-79
2022/01/13 02:02:08;;;;;;;37.15;19.73;;;;;;;;;;4995665;28;20033;-80
2022/01/13 02:04:35;;;;;;;34.80;18.33;;;;;;;;;;4994000;28;20018;-79
2022/01/13 02:07:03;;;;;;;37.30;21.40;;;;;;;;;;4993980;28;20061;-79
2022/01/13 02:09:28;;;;;;;30.80;16.98;;;;;;;;;;4994260;28;20134;-80
2022/01/13 02:11:57;;;;;;;32.53;16.13;;;;;;;;;;4994397;28;20113;-78
2022/01/13 02:16:55;;;;;;;28.48;14.57;;;;;;;;;;4995686;28;20044;-79
2022/01/13 02:19:23;;;;;;;30.38;14.93;;;;;;;;;;4995235;28;20072;-79
2022/01/13 02:21:48;;;;;;;29.77;14.32;;;;;;;;;;4995646;28;20083;-79
2022/01/13 02:24:14;;;;;;;28.50;15.25;;;;;;;;;;4993806;28;20517;-79
2022/01/13 02:26:39;;;;;;;35.38;17.67;;;;;;;;;;4993688;28;20444;-79
2022/01/13 02:29:04;;;;;;;32.10;15.35;;;;;;;;;;4994826;28;20431;-79
2022/01/13 02:31:29;;;;;;;30.85;15.27;;;;;;;;;;4993869;28;20033;-79
2022/01/13 02:33:55;;;;;;;34.05;14.88;;;;;;;;;;4995850;28;20034;-79
2022/01/13 02:36:22;;;;;;;35.70;17.75;;;;;;;;;;4996157;28;20030;-78
2022/01/13 02:38:53;;;;;;;37.47;17.50;;;;;;;;;;4994124;28;20057;-78
2022/01/13 02:41:18;;;;;;;37.17;17.23;;;;;;;;;;4995938;28;20022;-79
2022/01/13 02:43:45;;;;;;;53.28;22.88;;;;;;;;;;4993662;28;20054;-78
2022/01/13 02:46:31;;;;;;;47.03;23.98;;;;;;;;;;4993692;28;20026;-78
2022/01/13 02:48:56;;;;;;;38.92;21.75;;;;;;;;;;4993576;28;20394;-79
2022/01/13 02:51:21;;;;;;;35.50;17.67;;;;;;;;;;4994201;28;20034;-79
2022/01/13 02:53:47;;;;;;;34.47;16.17;;;;;;;;;;4993988;28;20033;-79
2022/01/13 02:56:12;;;;;;;37.38;17.42;;;;;;;;;;4995184;28;20029;-79
2022/01/13 02:58:37;;;;;;;40.90;17.45;;;;;;;;;;4995282;28;20080;-78
2022/01/13 03:01:04;;;;;;;41.05;21.23;;;;;;;;;;4995704;28;20062;-78
2022/01/13 03:03:31;;;;;;;36.13;17.52;;;;;;;;;;4993379;28;20025;-78
2022/01/13 03:05:56;;;;;;;48.45;24.88;;;;;;;;;;4995166;28;20036;-78
2022/01/13 03:08:21;;;;;;;35.88;15.45;;;;;;;;;;4993437;28;20034;-79
2022/01/13 03:10:47;;;;;;;36.05;17.20;;;;;;;;;;4996150;28;20359;-79
2022/01/13 03:13:12;;;;;;;31.90;15.50;;;;;;;;;;4995598;28;20030;-79
2022/01/13 03:15:38;;;;;;;32.03;15.50;;;;;;;;;;4995020;28;20459;-78
2022/01/13 03:18:03;;;;;;;37.20;17.58;;;;;;;;;;4993918;28;20526;-80
2022/01/13 03:20:29;;;;;;;27.08;14.10;;;;;;;;;;4994844;28;20177;-79
2022/01/13 03:22:54;;;;;;;34.92;15.07;;;;;;;;;;4995013;28;20548;-79
2022/01/13 03:25:22;;;;;;;35.90;17.42;;;;;;;;;;4993181;28;20429;-79
2022/01/13 03:28:04;;;;;;;53.58;25.88;;;;;;;;;;4993419;28;20034;-79
2022/01/13 03:30:30;;;;;;;32.85;16.15;;;;;;;;;;4993299;28;20107;-80
2022/01/13 03:32:55;;;;;;;40.80;19.42;;;;;;;;;;4994797;28;20053;-79
2022/01/13 03:35:21;;;;;;;33.03;16.73;;;;;;;;;;4993044;28;20026;-79
2022/01/13 03:37:46;;;;;;;38.45;16.70;;;;;;;;;;4992714;28;20033;-80
2022/01/13 03:40:12;;;;;;;37.55;18.20;;;;;;;;;;4993695;28;20038;-79
2022/01/13 03:42:38;;;;;;;39.55;18.83;;;;;;;;;;4998434;28;20053;-79
2022/01/13 03:45:03;;;;;;;33.85;17.73;;;;;;;;;;4998268;28;20032;-78
2022/01/13 03:47:29;;;;;;;28.52;13.88;;;;;;;;;;4996506;28;20022;-80
2022/01/13 03:49:54;;;;;;;36.83;17.15;;;;;;;;;;4998412;28;20062;-80
2022/01/13 03:52:23;;;;;;;27.77;15.20;;;;;;;;;;4996413;28;20033;-79
2022/01/13 03:54:48;;;;;;;26.70;12.85;;;;;;;;;;4997692;28;20026;-79
2022/01/13 03:57:13;;;;;;;26.13;14.40;;;;;;;;;;4998471;28;20480;-79
2022/01/13 03:59:41;;;;;;;31.40;14.90;;;;;;;;;;4997712;28;20037;-79
2022/01/13 04:02:11;;;;;;;36.45;18.55;;;;;;;;;;4998129;28;20045;-78
2022/01/13 04:04:40;;;;;;;32.63;14.43;;;;;;;;;;4995842;28;20121;-79
2022/01/13 04:07:10;;;;;;;28.92;14.13;;;;;;;;;;4997956;28;20060;-79
2022/01/13 04:09:35;;;;;;;35.80;15.73;;;;;;;;;;4996890;28;20026;-79
2022/01/13 04:12:04;;;;;;;34.13;15.73;;;;;;;;;;4996121;28;20140;-78
2022/01/13 04:14:37;;;;;;;31.25;15.80;;;;;;;;;;4996062;28;20521;-78
2022/01/13 04:17:03;;;;;;;36.60;16.45;;;;;;;;;;4996029;28;20036;-80
2022/01/13 04:19:28;;;;;;;27.52;13.35;;;;;;;;;;4998152;28;20029;-78
2022/01/13 04:21:53;;;;;;;25.02;13.40;;;;;;;;;;4996195;28;20125;-78
2022/01/13 04:24:19;;;;;;;24.05;13.88;;;;;;;;;;4998188;28;20014;-79
2022/01/13 04:26:44;;;;;;;41.05;16.70;;;;;;;;;;4997285;28;20034;-79
2022/01/13 04:31:35;;;;;;;35.92;17.88;;;;;;;;;;4997353;28;20025;-78
2022/01/13 04:34:01;;;;;;;26.85;15.45;;;;;;;;;;4997087;28;20497;-78
2022/01/13 04:36:26;;;;;;;35.33;15.68;;;;;;;;;;4997669;28;20216;-78
2022/01/13 04:38:51;;;;;;;36.28;19.23;;;;;;;;;;4996802;28;20061;-79
2022/01/13 04:41:28;;;;;;;26.27;14.60;;;;;;;;;;4995203;28;20116;-78
2022/01/13 04:43:53;;;;;;;33.63;15.63;;;;;;;;;;4996680;28;20569;-80
2022/01/13 04:46:19;;;;;;;27.92;13.30;;;;;;;;;;4995360;28;20112;-80
2022/01/13 04:48:44;;;;;;;28.55;14.13;;;;;;;;;;4995892;28;20116;-78
2022/01/13 04:51:09;;;;;;;24.92;12.05;;;;;;;;;;4995363;28;20109;-79
2022/01/13 04:53:35;;;;;;;23.55;12.68;;;;;;;;;;4997254;28;20558;-78
2022/01/13 04:56:08;;;;;;;25.67;12.85;;;;;;;;;;4996659;28;20053;-78
2022/01/13 04:58:34;;;;;;;27.85;15.88;;;;;;;;;;4997754;28;20079;-79
2022/01/13 05:00:59;;;;;;;29.75;14.93;;;;;;;;;;4997156;28;20037;-80
2022/01/13 05:03:24;;;;;;;45.30;22.00;;;;;;;;;;4995256;28;20109;-79
2022/01/13 05:05:50;;;;;;;38.40;19.13;;;;;;;;;;4996530;28;20033;-78
2022/01/13 05:08:15;;;;;;;52.75;26.40;;;;;;;;;;4996388;28;20891;-79
2022/01/13 05:10:40;;;;;;;23.65;13.77;;;;;;;;;;4995436;28;20037;-79
2022/01/13 05:13:09;;;;;;;30.65;15.43;;;;;;;;;;4995091;28;20076;-80
2022/01/13 05:15:36;;;;;;;31.08;16.52;;;;;;;;;;4996092;28;20104;-81
2022/01/13 05:18:21;;;;;;;28.85;14.70;;;;;;;;;;4995145;28;20441;-79
2022/01/13 05:20:57;;;;;;;26.65;14.15;;;;;;;;;;4996828;28;20032;-79
2022/01/13 05:23:23;;;;;;;26.02;14.15;;;;;;;;;;4994738;28;20065;-79
2022/01/13 05:25:48;;;;;;;27.30;13.98;;;;;;;;;;4996536;28;20053;-79
2022/01/13 05:28:13;;;;;;;40.80;21.20;;;;;;;;;;4997226;28;20026;-79
2022/01/13 05:30:39;;;;;;;37.85;17.17;;;;;;;;;;4994579;28;20065;-78
2022/01/13 05:33:05;;;;;;;31.05;14.35;;;;;;;;;;4997151;28;20508;-79
2022/01/13 05:35:30;;;;;;;30.05;14.05;;;;;;;;;;4996873;28;20037;-79
2022/01/13 05:37:56;;;;;;;29.00;13.95;;;;;;;;;;4994715;28;20048;-79
2022/01/13 05:40:22;;;;;;;28.42;14.27;;;;;;;;;;4997152;28;20311;-77
2022/01/13 05:42:48;;;;;;;28.70;14.60;;;;;;;;;;4995057;28;20061;-78
2022/01/13 05:45:18;;;;;;;32.28;14.93;;;;;;;;;;4994607;28;20462;-77
2022/01/13 05:47:44;;;;;;;28.17;14.65;;;;;;;;;;4994369;28;20124;-80
2022/01/13 05:50:10;;;;;;;35.60;17.08;;;;;;;;;;4993459;28;20032;-78
2022/01/13 05:52:36;;;;;;;41.30;17.73;;;;;;;;;;4995425;28;20014;-78
2022/01/13 05:55:03;;;;;;;27.55;14.30;;;;;;;;;;4993476;28;20478;-79
2022/01/13 05:57:28;;;;;;;34.15;18.75;;;;;;;;;;4993247;28;20034;-78
2022/01/13 05:59:54;;;;;;;32.10;15.98;;;;;;;;;;4994105;28;20569;-80
2022/01/13 06:02:19;;;;;;;27.25;13.77;;;;;;;;;;4993775;28;20021;-77
2022/01/13 06:04:44;;;;;;;29.48;14.07;;;;;;;;;;4995070;28;20025;-77
2022/01/13 06:07:10;;;;;;;31.30;16.00;;;;;;;;;;4994481;28;20072;-77
2022/01/13 06:09:35;;;;;;;28.98;14.88;;;;;;;;;;4996158;28;20022;-77
2022/01/13 06:12:03;;;;;;;23.20;12.45;;;;;;;;;;4993906;28;20470;-77
2022/01/13 06:14:28;;;;;;;47.03;22.42;;;;;;;;;;4995929;28;20470;-78
2022/01/13 06:16:55;;;;;;;60.70;28.60;;;;;;;;;;4995842;28;20044;-77
2022/01/13 06:19:22;;;;;;;61.67;30.80;;;;;;;;;;4994133;28;20034;-77
2022/01/13 06:21:47;;;;;;;43.70;21.05;;;;;;;;;;4994931;28;20029;-77
2022/01/13 06:24:12;;;;;;;39.15;20.52;;;;;;;;;;4993669;28;20485;-77
2022/01/13 06:26:38;;;;;;;43.40;20.35;;;;;;;;;;4996113;28;20022;-77
2022/01/13 06:29:05;;;;;;;47.63;24.35;;;;;;;;;;4993883;28;20026;-77
2022/01/13 06:31:30;;;;;;;59.75;34.35;;;;;;;;;;4977231;28;20034;-77
2022/01/13 06:33:55;;;;;;;47.80;28.05;;;;;;;;;;4993412;28;20083;-77
2022/01/13 06:36:21;;;;;;;77.75;35.97;;;;;;;;;;4993992;28;20026;-77
2022/01/13 06:38:48;;;;;;;501.17;192.85;;;;;;;;;;4995614;28;20467;-78
2022/01/13 06:41:17;;;;;;;123.15;47.63;;;;;;;;;;4995811;28;20101;-77
2022/01/13 06:43:43;;;;;;;318.92;134.73;;;;;;;;;;4993820;28;20069;-78
2022/01/13 06:46:08;;;;;;;132.32;62.63;;;;;;;;;;4994888;28;20030;-77
2022/01/13 06:48:33;;;;;;;94.13;40.85;;;;;;;;;;4993764;28;20030;-76
2022/01/13 06:50:59;;;;;;;74.72;31.10;;;;;;;;;;4993932;28;20112;-78
2022/01/13 06:53:24;;;;;;;52.15;22.75;;;;;;;;;;4993681;28;20061;-78
2022/01/13 06:55:50;;;;;;;45.03;23.40;;;;;;;;;;4995333;28;20018;-78
2022/01/13 06:58:16;;;;;;;39.38;21.02;;;;;;;;;;4995082;28;20463;-77
2022/01/13 07:00:41;;;;;;;39.53;20.40;;;;;;;;;;4996019;28;20552;-78
2022/01/13 07:03:06;;;;;;;50.63;26.90;;;;;;;;;;4993928;28;20549;-78
2022/01/13 07:05:32;;;;;;;53.17;28.60;;;;;;;;;;4992288;28;20025;-78
2022/01/13 07:07:57;;;;;;;71.75;44.90;;;;;;;;;;4993458;28;20030;-78
2022/01/13 07:10:23;;;;;;;54.38;30.58;;;;;;;;;;4992259;28;20423;-77
2022/01/13 07:12:48;;;;;;;57.90;31.95;;;;;;;;;;4994785;28;20032;-77
2022/01/13 07:15:13;;;;;;;54.75;27.20;;;;;;;;;;4994633;28;20530;-77
2022/01/13 07:17:39;;;;;;;40.38;22.27;;;;;;;;;;4996920;28;20466;-77
2022/01/13 07:20:06;;;;;;;51.83;23.90;;;;;;;;;;4997343;28;20057;-77
2022/01/13 07:22:31;;;;;;;36.58;20.95;;;;;;;;;;4995297;28;20481;-77
2022/01/13 07:24:56;;;;;;;43.53;24.20;;;;;;;;;;4995376;28;20026;-78
2022/01/13 07:27:22;;;;;;;36.40;18.08;;;;;;;;;;4995661;28;20038;-78
2022/01/13 07:29:48;;;;;;;36.55;17.40;;;;;;;;;;4995961;28;20032;-78
2022/01/13 07:32:15;;;;;;;38.88;22.20;;;;;;;;;;4998172;28;20026;-78
2022/01/13 07:34:40;;;;;;;26.27;13.90;;;;;;;;;;4996356;28;20022;-78
2022/01/13 07:37:06;;;;;;;30.70;16.08;;;;;;;;;;4996337;28;20079;-77
2022/01/13 07:39:31;;;;;;;32.08;20.10;;;;;;;;;;4998059;28;20032;-78
2022/01/13 07:41:57;;;;;;;44.97;25.55;;;;;;;;;;4998460;28;20477;-78
2022/01/13 07:44:22;;;;;;;47.63;25.88;;;;;;;;;;4998936;28;20034;-78
2022/01/13 07:46:48;;;;;;;42.97;26.65;;;;;;;;;;4997999;28;20034;-78
2022/01/13 07:49:14;;;;;;;50.10;26.00;;;;;;;;;;4996413;28;20359;-78
2022/01/13 07:51:39;;;;;;;51.42;26.17;;;;;;;;;;4998994;28;20523;-78
2022/01/13 07:54:04;;;;;;;48.83;26.60;;;;;;;;;;4995822;28;20037;-78
2022/01/13 07:56:30;;;;;;;49.88;26.10;;;;;;;;;;4998013;28;20467;-78
2022/01/13 07:58:55;;;;;;;38.75;20.60;;;;;;;;;;4997985;28;20087;-78
2022/01/13 08:01:21;;;;;;;44.45;25.23;;;;;;;;;;4995938;28;20026;-78
2022/01/13 08:03:46;;;;;;;36.38;19.13;;;;;;;;;;4995742;28;20018;-78
2022/01/13 08:06:12;;;;;;;35.90;22.23;;;;;;;;;;4998367;28;20030;-77
2022/01/13 08:08:38;;;;;;;39.45;21.45;;;;;;;;;;4997323;28;20037;-78
2022/01/13 08:11:04;;;;;;;41.28;24.83;;;;;;;;;;4997808;28;20189;-78
2022/01/13 08:13:29;;;;;;;51.97;31.48;;;;;;;;;;4996494;28;20029;-79
2022/01/13 08:15:55;;;;;;;50.15;28.42;;;;;;;;;;4997471;28;20036;-78
2022/01/13 08:21:05;;;;;;;45.20;25.52;;;;;;;;;;4997260;28;20058;-78
2022/01/13 08:23:30;;;;;;;44.13;26.27;;;;;;;;;;4997628;28;20029;-80
2022/01/13 08:25:55;;;;;;;39.42;24.27;;;;;;;;;;4995546;28;20025;-81
2022/01/13 08:28:21;;;;;;;50.03;27.02;;;;;;;;;;4996153;28;20029;-78
2022/01/13 08:30:48;;;;;;;36.67;22.13;;;;;;;;;;4998127;28;20045;-81
2022/01/13 08:33:13;;;;;;;50.35;30.23;;;;;;;;;;4995748;28;20454;-80
2022/01/13 08:35:43;;;;;;;31.15;19.45;;;;;;;;;;4998669;28;20029;-81
2022/01/13 08:38:16;;;;;;;24.05;13.27;;;;;;;;;;4997547;28;20025;-81
2022/01/13 08:40:48;;;;;;;25.90;15.18;;;;;;;;;;4996285;28;20378;-80
2022/01/13 08:43:15;;;;;;;47.58;28.67;;;;;;;;;;4997016;28;20050;-80
2022/01/13 08:45:43;;;;;;;36.20;18.52;;;;;;;;;;5008002;28;20033;-81
2022/01/13 08:48:09;;;;;;;23.35;14.25;;;;;;;;;;5018418;28;20064;-77
2022/01/13 08:50:34;;;;;;;35.58;19.02;;;;;;;;;;5017583;28;20064;-78
2022/01/13 08:53:00;;;;;;;26.33;15.13;;;;;;;;;;5015768;28;20021;-79
2022/01/13 08:55:26;;;;;;;21.25;11.65;;;;;;;;;;5017415;28;20025;-79
2022/01/13 08:57:51;;;;;;;22.52;13.07;;;;;;;;;;5014605;28;20021;-79
2022/01/13 09:00:17;;;;;;;27.77;14.57;;;;;;;;;;5015984;28;20754;-79
2022/01/13 09:02:42;;;;;;;77.45;37.13;;;;;;;;;;5015109;28;20029;-79
2022/01/13 09:05:08;;;;;;;46.72;22.80;;;;;;;;;;5008903;28;20593;-78
2022/01/13 09:07:34;;;;;;;46.00;23.65;;;;;;;;;;5007642;28;20108;-80
2022/01/13 09:09:59;;;;;;;126.18;56.00;;;;;;;;;;5013413;28;20473;-78
2022/01/13 09:12:24;;;;;;;52.50;26.70;;;;;;;;;;5013964;28;20030;-77
2022/01/13 09:14:51;;;;;;;56.25;30.95;;;;;;;;;;5014508;28;20060;-77
2022/01/13 09:17:23;;;;;;;44.17;24.75;;;;;;;;;;5016001;28;20111;-80
2022/01/13 09:19:49;;;;;;;74.50;40.15;;;;;;;;;;5013902;28;20029;-81
2022/01/13 09:22:14;;;;;;;103.90;49.92;;;;;;;;;;5014598;28;20022;-79
2022/01/13 09:24:40;;;;;;;101.65;50.75;;;;;;;;;;5014705;28;20025;-79
2022/01/13 09:27:06;;;;;;;71.95;35.78;;;;;;;;;;5016020;28;20247;-82
2022/01/13 09:29:33;;;;;;;62.15;28.05;;;;;;;;;;5016411;28;20108;-81
2022/01/13 09:31:58;;;;;;;96.57;45.55;;;;;;;;;;5015512;28;20120;-78
2022/01/13 09:34:24;;;;;;;164.30;70.47;;;;;;;;;;5014649;28;20021;-81
2022/01/13 09:36:49;;;;;;;153.90;67.60;;;;;;;;;;5014143;28;20037;-78
2022/01/13 09:39:15;;;;;;;97.53;46.95;;;;;;;;;;5015634;28;20029;-80
2022/01/13 09:41:42;;;;;;;97.18;46.67;;;;;;;;;;5017345;28;20021;-80
2022/01/13 09:44:13;;;;;;;89.35;38.58;;;;;;;;;;5017824;28;20561;-81
2022/01/13 09:46:53;;;;;;;75.05;37.17;;;;;;;;;;5016058;28;20119;-79
2022/01/13 09:49:19;;;;;;;68.03;33.03;;;;;;;;;;5015448;28;20420;-78
2022/01/13 09:51:45;;;;;;;37.65;22.85;;;;;;;;;;5014274;28;20033;-79
2022/01/13 09:54:10;;;;;;;35.50;19.70;;;;;;;;;;5001289;28;20030;-78
2022/01/13 09:56:36;;;;;;;47.47;31.65;;;;;;;;;;4995613;28;20026;-78
2022/01/13 09:59:01;;;;;;;55.38;32.35;;;;;;;;;;4995522;28;20208;-78
2022/01/13 10:01:27;;;;;;;45.65;28.33;;;;;;;;;;4994614;28;20528;-78
2022/01/13 10:03:52;;;;;;;49.67;28.85;;;;;;;;;;4996008;28;20034;-78
2022/01/13 10:06:19;;;;;;;49.38;26.70;;;;;;;;;;4995670;28;20032;-79
2022/01/13 10:09:55;;;;;;;45.72;26.13;;;;;;;;;;4996807;28;20068;-80
2022/01/13 10:11:59;;;;;;;71.68;42.22;;;;;;;;;;4987622;28;20034;-80
2022/01/13 10:16:55;;;;;;;62.00;32.50;;;;;;;;;;4995787;28;20128;-78
2022/01/13 10:19:27;;;;;;;53.97;29.40;;;;;;;;;;4994865;28;20116;-80
2022/01/13 10:21:57;;;;;;;153.77;68.63;;;;;;;;;;4995152;28;20030;-78
2022/01/13 10:24:22;;;;;;;;;;;;;;;;;;4995504;28;20048;-77
2022/01/13 10:27:02;;;;;;;54.60;29.47;;;;;;;;;;4995596;28;20281;-78
2022/01/13 10:29:43;;;;;;;55.80;29.92;;;;;;;;;;4994702;28;20026;-76
2022/01/13 10:32:10;;;;;;;54.65;27.38;;;;;;;;;;4994982;28;20434;-79
2022/01/13 10:34:36;;;;;;;50.00;25.48;;;;;;;;;;4994755;28;20105;-77
2022/01/13 10:37:15;;;;;;;52.50;28.88;;;;;;;;;;4994537;28;20130;-78
2022/01/13 10:39:45;;;;;;;48.63;28.98;;;;;;;;;;4994914;28;20446;-78
2022/01/13 10:42:44;;;;;;;41.53;21.75;;;;;;;;;;4996174;28;20050;-79
2022/01/13 10:44:59;;;;;;;51.58;28.55;;;;;;;;;;4994991;28;20026;-78
2022/01/13 10:47:26;;;;;;;44.45;24.05;;;;;;;;;;4994975;28;20135;-77
2022/01/13 10:49:51;;;;;;;55.38;27.13;;;;;;;;;;4996914;28;20026;-79
2022/01/13 10:52:17;;;;;;;63.75;34.10;;;;;;;;;;4999222;28;20359;-78
2022/01/13 10:54:42;;;;;;;68.68;38.83;;;;;;;;;;4998432;28;20363;-77
2022/01/13 10:57:34;;;;;;;62.45;32.45;;;;;;;;;;5000447;28;20026;-80
2022/01/13 11:00:00;;;;;;;89.13;47.30;;;;;;;;;;4996982;28;20038;-77
2022/01/13 11:02:26;;;;;;;77.05;42.28;;;;;;;;;;4998810;28;20022;-76
2022/01/13 11:04:51;;;;;;;89.80;49.15;;;;;;;;;;5000395;28;20033;-77
2022/01/13 11:07:18;;;;;;;58.08;29.25;;;;;;;;;;4998804;28;20030;-78
2022/01/13 11:10:03;;;;;;;59.13;30.58;;;;;;;;;;4999121;28;20406;-77
2022/01/13 11:12:39;;;;;;;55.83;31.58;;;;;;;;;;5000257;28;20618;-79
2022/01/13 11:15:06;;;;;;;63.80;35.13;;;;;;;;;;4998371;28;20036;-77
2022/01/13 11:17:33;;;;;;;56.85;30.23;;;;;;;;;;4998186;28;20033;-78
2022/01/13 11:19:59;;;;;;;49.67;24.92;;;;;;;;;;4998415;28;20065;-79
2022/01/13 11:22:25;;;;;;;57.70;31.25;;;;;;;;;;4998532;28;20045;-78
2022/01/13 11:24:50;;;;;;;51.28;27.25;;;;;;;;;;4998756;28;20029;-78
2022/01/13 11:27:18;;;;;;;48.03;27.23;;;;;;;;;;5001855;28;20041;-79
2022/01/13 11:29:45;;;;;;;61.47;34.22;;;;;;;;;;4996708;28;20058;-76
2022/01/13 11:32:11;;;;;;;48.30;28.08;;;;;;;;;;4998729;28;20382;-77
2022/01/13 11:34:37;;;;;;;56.38;30.63;;;;;;;;;;4997272;28;20822;-78
2022/01/13 11:37:02;;;;;;;56.50;32.15;;;;;;;;;;4997756;28;20041;-79
2022/01/13 11:39:38;;;;;;;40.45;22.48;;;;;;;;;;4997717;28;20025;-77
2022/01/13 11:42:05;;;;;;;63.05;33.00;;;;;;;;;;4998329;28;20061;-78
2022/01/13 11:44:30;;;;;;;80.60;37.40;;;;;;;;;;4997669;28;20032;-78
2022/01/13 11:46:56;;;;;;;69.35;35.05;;;;;;;;;;4997341;28;20116;-79
2022/01/13 11:49:37;;;;;;;84.35;40.92;;;;;;;;;;4996952;28;20026;-80
2022/01/13 11:52:12;;;;;;;75.00;38.65;;;;;;;;;;4998569;28;20060;-77
2022/01/13 11:54:38;;;;;;;54.92;27.75;;;;;;;;;;4997458;28;20050;-77
2022/01/13 11:57:16;;;;;;;73.38;38.92;;;;;;;;;;4995646;28;20026;-77
2022/01/13 11:59:57;;;;;;;102.53;53.20;;;;;;;;;;4998199;28;20057;-77
2022/01/13 12:02:23;;;;;;;124.38;54.25;;;;;;;;;;4995329;28;20024;-77
2022/01/13 12:05:04;;;;;;;87.22;39.90;;;;;;;;;;4992678;28;20033;-77
2022/01/13 12:07:34;;;;;;;80.25;45.63;;;;;;;;;;4992839;28;20414;-77
2022/01/13 12:10:00;;;;;;;61.28;30.83;;;;;;;;;;4994946;28;20026;-77
2022/01/13 12:12:29;;;;;;;91.78;48.17;;;;;;;;;;4994481;28;20030;-77
2022/01/13 12:15:12;;;;;;;95.95;51.28;;;;;;;;;;4993954;28;20025;-78
2022/01/13 12:17:48;;;;;;;69.47;40.72;;;;;;;;;;4995833;28;20042;-77
2022/01/13 12:20:26;;;;;;;55.13;31.65;;;;;;;;;;4995933;28;20572;-77
2022/01/13 12:25:35;;;;;;;51.90;29.27;;;;;;;;;;4996777;28;20036;-77
2022/01/13 12:28:11;;;;;;;50.67;27.55;;;;;;;;;;4994982;28;20112;-77
2022/01/13 12:30:36;;;;;;;53.38;28.83;;;;;;;;;;4996178;28;20492;-77
2022/01/13 12:33:03;;;;;;;48.92;27.50;;;;;;;;;;4996049;28;20493;-77
2022/01/13 12:35:37;;;;;;;56.88;32.92;;;;;;;;;;4995684;28;20020;-77
2022/01/13 12:38:06;;;;;;;48.42;25.70;;;;;;;;;;4996583;28;20356;-77
2022/01/13 12:40:40;;;;;;;48.17;25.80;;;;;;;;;;4996373;28;20489;-77
2022/01/13 12:46:04;;;;;;;51.53;29.85;;;;;;;;;;4996209;28;20037;-78
2022/01/13 12:48:30;;;;;;;46.75;27.52;;;;;;;;;;4996927;28;20459;-77
2022/01/13 12:50:56;;;;;;;39.38;21.20;;;;;;;;;;4996125;28;20021;-78
2022/01/13 12:53:26;;;;;;;50.13;25.65;;;;;;;;;;4995462;28;20021;-76
2022/01/13 12:55:56;;;;;;;46.60;22.70;;;;;;;;;;4995564;28;20137;-78
2022/01/13 12:58:24;;;;;;;49.85;27.67;;;;;;;;;;5004898;28;20037;-76
2022/01/13 13:00:49;;;;;;;50.28;25.85;;;;;;;;;;5014689;28;20056;-76
2022/01/13 13:03:15;;;;;;;91.35;43.30;;;;;;;;;;5014859;28;20106;-77
2022/01/13 13:05:47;;;;;;;98.35;47.03;;;;;;;;;;5016273;28;20092;-77
2022/01/13 13:08:15;;;;;;;69.47;33.55;;;;;;;;;;5015005;28;20025;-78
2022/01/13 13:10:42;;;;;;;61.28;32.83;;;;;;;;;;5014168;28;20312;-77
2022/01/13 13:13:08;;;;;;;42.53;21.80;;;;;;;;;;5014497;28;20022;-79
2022/01/13 13:17:58;;;;;;;58.92;31.27;;;;;;;;;;5015614;28;20454;-81
2022/01/13 13:20:25;;;;;;;60.53;31.38;;;;;;;;;;5016049;28;20028;-79
2022/01/13 13:22:53;;;;;;;50.53;24.75;;;;;;;;;;5014734;28;20666;-79
2022/01/13 13:25:36;;;;;;;44.97;24.60;;;;;;;;;;5014371;28;20024;-79
2022/01/13 13:28:19;;;;;;;56.55;30.02;;;;;;;;;;5014768;28;20025;-79
2022/01/13 13:30:45;;;;;;;59.42;29.58;;;;;;;;;;5014217;28;20021;-78
2022/01/13 13:33:11;;;;;;;59.20;33.78;;;;;;;;;;5013821;28;20036;-79
2022/01/13 13:35:36;;;;;;;76.40;39.55;;;;;;;;;;5014243;28;20025;-79
2022/01/13 13:38:02;;;;;;;56.72;33.38;;;;;;;;;;5015717;28;20040;-78
2022/01/13 13:40:27;;;;;;;62.75;31.15;;;;;;;;;;5014202;28;20120;-78
2022/01/13 13:43:03;;;;;;;39.10;20.08;;;;;;;;;;5013996;28;20441;-78
2022/01/13 13:45:29;;;;;;;50.85;27.02;;;;;;;;;;5014396;28;20148;-80
2022/01/13 13:47:55;;;;;;;39.95;22.45;;;;;;;;;;5016530;28;20536;-79
2022/01/13 13:50:20;;;;;;;45.35;22.65;;;;;;;;;;5014537;28;20095;-80
2022/01/13 13:52:46;;;;;;;46.72;23.95;;;;;;;;;;5014608;28;20025;-78
2022/01/13 13:55:11;;;;;;;45.85;23.50;;;;;;;;;;5015993;28;20393;-78
2022/01/13 13:57:38;;;;;;;53.25;28.45;;;;;;;;;;4999199;28;20036;-77
2022/01/13 14:00:08;;;;;;;47.70;25.65;;;;;;;;;;4999242;28;20554;-78
2022/01/13 14:02:36;;;;;;;45.90;23.98;;;;;;;;;;4993424;28;20030;-77
2022/01/13 14:05:04;;;;;;;59.40;31.92;;;;;;;;;;4996137;28;20026;-78
2022/01/13 14:07:33;;;;;;;49.38;25.10;;;;;;;;;;4994099;28;20045;-77
2022/01/13 14:09:58;;;;;;;36.10;18.25;;;;;;;;;;5002938;28;20060;-77
2022/01/13 14:12:27;;;;;;;45.20;24.15;;;;;;;;;;4996120;28;20050;-77
2022/01/13 14:14:53;;;;;;;43.78;20.95;;;;;;;;;;4995506;28;20108;-76
2022/01/13 14:17:28;;;;;;;46.10;24.67;;;;;;;;;;4994778;28;20459;-78
2022/01/13 14:20:01;;;;;;;45.15;25.00;;;;;;;;;;4993392;28;20038;-75
2022/01/13 14:22:26;;;;;;;49.15;25.00;;;;;;;;;;4993514;28;20477;-75
2022/01/13 14:24:52;;;;;;;56.45;30.00;;;;;;;;;;4996158;28;20025;-77
2022/01/13 14:27:17;;;;;;;55.00;29.05;;;;;;;;;;4993710;28;20034;-77
2022/01/13 14:29:49;;;;;;;57.13;30.73;;;;;;;;;;4995068;28;20030;-77
2022/01/13 14:32:22;;;;;;;65.88;33.08;;;;;;;;;;4993164;28;20045;-77
2022/01/13 14:34:49;;;;;;;47.58;25.52;;;;;;;;;;4993160;28;20021;-74
2022/01/13 14:37:14;;;;;;;59.97;34.75;;;;;;;;;;4996005;28;20032;-76
2022/01/13 14:39:40;;;;;;;62.65;34.00;;;;;;;;;;4994767;28;20104;-77
2022/01/13 14:42:25;;;;;;;63.38;37.42;;;;;;;;;;4993668;28;20086;-75
2022/01/13 14:45:11;;;;;;;56.17;31.95;;;;;;;;;;4993649;28;20049;-77
2022/01/13 14:47:36;;;;;;;53.63;30.23;;;;;;;;;;4993290;28;20088;-76